sensor_id;sensor_type;location;lat;lon;timestamp;P1;durP1;ratioP1;P2;durP2;ratioP2
870;SDS011;422;51.280;7.236;2023-06-05T00:02:01;5.67;;;4.07;;
870;SDS011;422;51.280;7.236;2023-06-05T00:04:28;5.37;;;3.90;;
870;SDS011;422;51.280;7.236;2023-06-05T00:06:56;8.23;;;3.80;;
870;SDS011;422;51.280;7.236;2023-06-05T00:09:23;4.60;;;3.60;;
870;SDS011;422;51.280;7.236;2023-06-05T00:11:52;6.00;;;3.90;;
870;SDS011;422;51.280;7.236;2023-06-05T00:14:19;6.47;;;3.57;;
870;SDS011;422;51.280;7.236;2023-06-05T00:16:47;6.20;;;3.60;;
870;SDS011;422;51.280;7.236;2023-06-05T00:19:14;5.23;;;3.47;;
870;SDS011;422;51.280;7.236;2023-06-05T00:21:42;6.30;;;3.80;;
870;SDS011;422;51.280;7.236;2023-06-05T00:24:09;7.10;;;3.67;;
870;SDS011;422;51.280;7.236;2023-06-05T00:26:36;5.20;;;3.77;;
870;SDS011;422;51.280;7.236;2023-06-05T00:29:04;4.13;;;3.23;;
870;SDS011;422;51.280;7.236;2023-06-05T00:31:32;3.90;;;3.40;;
870;SDS011;422;51.280;7.236;2023-06-05T00:33:59;5.10;;;3.60;;
870;SDS011;422;51.280;7.236;2023-06-05T00:36:27;4.97;;;3.60;;
870;SDS011;422;51.280;7.236;2023-06-05T00:38:54;3.80;;;3.27;;
870;SDS011;422;51.280;7.236;2023-06-05T00:41:21;8.60;;;4.13;;
870;SDS011;422;51.280;7.236;2023-06-05T00:43:48;5.63;;;4.00;;
870;SDS011;422;51.280;7.236;2023-06-05T00:46:16;4.57;;;3.83;;
870;SDS011;422;51.280;7.236;2023-06-05T00:48:45;6.77;;;4.67;;
870;SDS011;422;51.280;7.236;2023-06-05T00:51:13;5.73;;;4.10;;
870;SDS011;422;51.280;7.236;2023-06-05T00:53:41;4.67;;;3.40;;
870;SDS011;422;51.280;7.236;2023-06-05T00:56:10;5.47;;;3.93;;
870;SDS011;422;51.280;7.236;2023-06-05T00:58:38;7.40;;;4.20;;
870;SDS011;422;51.280;7.236;2023-06-05T01:01:05;4.40;;;3.53;;
870;SDS011;422;51.280;7.236;2023-06-05T01:03:37;5.47;;;4.10;;
870;SDS011;422;51.280;7.236;2023-06-05T01:06:05;6.87;;;4.33;;
870;SDS011;422;51.280;7.236;2023-06-05T01:08:32;5.77;;;4.47;;
870;SDS011;422;51.280;7.236;2023-06-05T01:11:04;5.37;;;3.57;;
870;SDS011;422;51.280;7.236;2023-06-05T01:13:36;4.40;;;3.73;;
870;SDS011;422;51.280;7.236;2023-06-05T01:16:10;8.17;;;4.33;;
870;SDS011;422;51.280;7.236;2023-06-05T01:18:42;7.27;;;4.40;;
870;SDS011;422;51.280;7.236;2023-06-05T01:21:11;5.40;;;4.07;;
870;SDS011;422;51.280;7.236;2023-06-05T01:23:43;6.50;;;4.37;;
870;SDS011;422;51.280;7.236;2023-06-05T01:26:12;4.73;;;4.10;;
870;SDS011;422;51.280;7.236;2023-06-05T01:28:45;4.47;;;4.07;;
870;SDS011;422;51.280;7.236;2023-06-05T01:31:16;7.87;;;3.63;;
870;SDS011;422;51.280;7.236;2023-06-05T01:33:48;5.43;;;4.40;;
870;SDS011;422;51.280;7.236;2023-06-05T01:36:22;4.30;;;3.83;;
870;SDS011;422;51.280;7.236;2023-06-05T01:38:51;7.00;;;4.63;;
870;SDS011;422;51.280;7.236;2023-06-05T01:41:21;5.23;;;3.90;;
870;SDS011;422;51.280;7.236;2023-06-05T01:43:49;5.80;;;4.57;;
870;SDS011;422;51.280;7.236;2023-06-05T01:46:20;8.13;;;4.47;;
870;SDS011;422;51.280;7.236;2023-06-05T01:48:49;5.47;;;4.73;;
870;SDS011;422;51.280;7.236;2023-06-05T01:51:17;5.70;;;4.60;;
870;SDS011;422;51.280;7.236;2023-06-05T01:53:45;6.00;;;4.70;;
870;SDS011;422;51.280;7.236;2023-06-05T01:56:15;4.97;;;4.10;;
870;SDS011;422;51.280;7.236;2023-06-05T01:58:45;7.43;;;4.43;;
870;SDS011;422;51.280;7.236;2023-06-05T02:01:13;6.63;;;4.83;;
870;SDS011;422;51.280;7.236;2023-06-05T02:03:41;9.00;;;5.37;;
870;SDS011;422;51.280;7.236;2023-06-05T02:06:13;7.03;;;4.87;;
870;SDS011;422;51.280;7.236;2023-06-05T02:08:41;6.70;;;4.57;;
870;SDS011;422;51.280;7.236;2023-06-05T02:11:09;4.70;;;4.10;;
870;SDS011;422;51.280;7.236;2023-06-05T02:13:38;6.67;;;4.43;;
870;SDS011;422;51.280;7.236;2023-06-05T02:16:07;5.70;;;5.00;;
870;SDS011;422;51.280;7.236;2023-06-05T02:18:36;4.80;;;4.30;;
870;SDS011;422;51.280;7.236;2023-06-05T02:21:04;6.50;;;4.70;;
870;SDS011;422;51.280;7.236;2023-06-05T02:23:31;5.50;;;4.63;;
870;SDS011;422;51.280;7.236;2023-06-05T02:25:58;5.97;;;4.57;;
870;SDS011;422;51.280;7.236;2023-06-05T02:28:25;7.60;;;4.83;;
870;SDS011;422;51.280;7.236;2023-06-05T02:30:54;6.63;;;4.33;;
870;SDS011;422;51.280;7.236;2023-06-05T02:33:22;7.40;;;4.50;;
870;SDS011;422;51.280;7.236;2023-06-05T02:35:49;7.13;;;5.07;;
870;SDS011;422;51.280;7.236;2023-06-05T02:38:17;7.83;;;4.80;;
870;SDS011;422;51.280;7.236;2023-06-05T02:40:44;6.30;;;5.33;;
870;SDS011;422;51.280;7.236;2023-06-05T02:43:11;5.73;;;4.50;;
870;SDS011;422;51.280;7.236;2023-06-05T02:45:39;5.97;;;5.30;;
870;SDS011;422;51.280;7.236;2023-06-05T02:48:08;7.20;;;5.40;;
870;SDS011;422;51.280;7.236;2023-06-05T02:50:35;7.03;;;4.90;;
870;SDS011;422;51.280;7.236;2023-06-05T02:53:02;10.43;;;4.83;;
870;SDS011;422;51.280;7.236;2023-06-05T02:55:29;7.63;;;5.40;;
870;SDS011;422;51.280;7.236;2023-06-05T02:57:57;8.10;;;5.00;;
870;SDS011;422;51.280;7.236;2023-06-05T03:00:24;5.43;;;4.77;;
870;SDS011;422;51.280;7.236;2023-06-05T03:02:51;5.90;;;5.30;;
870;SDS011;422;51.280;7.236;2023-06-05T03:05:22;8.53;;;4.63;;
870;SDS011;422;51.280;7.236;2023-06-05T03:07:50;7.23;;;5.00;;
870;SDS011;422;51.280;7.236;2023-06-05T03:10:19;17.23;;;5.63;;
870;SDS011;422;51.280;7.236;2023-06-05T03:12:46;6.57;;;5.00;;
870;SDS011;422;51.280;7.236;2023-06-05T03:15:14;7.47;;;4.90;;
870;SDS011;422;51.280;7.236;2023-06-05T03:17:42;9.37;;;5.57;;
870;SDS011;422;51.280;7.236;2023-06-05T03:20:10;6.00;;;5.40;;
870;SDS011;422;51.280;7.236;2023-06-05T03:22:39;7.80;;;5.53;;
870;SDS011;422;51.280;7.236;2023-06-05T03:25:07;5.93;;;5.07;;
870;SDS011;422;51.280;7.236;2023-06-05T03:27:35;8.13;;;5.80;;
870;SDS011;422;51.280;7.236;2023-06-05T03:30:02;7.00;;;5.50;;
870;SDS011;422;51.280;7.236;2023-06-05T03:32:30;7.47;;;6.70;;
870;SDS011;422;51.280;7.236;2023-06-05T03:34:57;6.53;;;5.50;;
870;SDS011;422;51.280;7.236;2023-06-05T03:37:24;7.30;;;5.67;;
870;SDS011;422;51.280;7.236;2023-06-05T03:39:53;6.63;;;5.93;;
870;SDS011;422;51.280;7.236;2023-06-05T03:42:20;8.37;;;6.77;;
870;SDS011;422;51.280;7.236;2023-06-05T03:44:47;10.60;;;5.37;;
870;SDS011;422;51.280;7.236;2023-06-05T03:47:14;7.53;;;5.20;;
870;SDS011;422;51.280;7.236;2023-06-05T03:49:41;6.20;;;5.27;;
870;SDS011;422;51.280;7.236;2023-06-05T03:52:13;7.63;;;6.30;;
870;SDS011;422;51.280;7.236;2023-06-05T03:54:40;7.17;;;6.40;;
870;SDS011;422;51.280;7.236;2023-06-05T03:57:11;8.07;;;6.50;;
870;SDS011;422;51.280;7.236;2023-06-05T03:59:40;8.07;;;5.97;;
870;SDS011;422;51.280;7.236;2023-06-05T04:02:07;9.17;;;6.73;;
870;SDS011;422;51.280;7.236;2023-06-05T04:04:34;7.10;;;6.40;;
870;SDS011;422;51.280;7.236;2023-06-05T04:07:01;10.17;;;6.27;;
870;SDS011;422;51.280;7.236;2023-06-05T04:09:29;8.07;;;6.23;;
870;SDS011;422;51.280;7.236;2023-06-05T04:11:56;7.60;;;5.73;;
870;SDS011;422;51.280;7.236;2023-06-05T04:14:25;9.20;;;6.00;;
870;SDS011;422;51.280;7.236;2023-06-05T04:16:52;10.23;;;6.27;;
870;SDS011;422;51.280;7.236;2023-06-05T04:19:19;9.23;;;6.03;;
870;SDS011;422;51.280;7.236;2023-06-05T04:21:46;7.80;;;6.20;;
870;SDS011;422;51.280;7.236;2023-06-05T04:24:13;11.23;;;6.73;;
870;SDS011;422;51.280;7.236;2023-06-05T04:26:41;6.70;;;5.60;;
870;SDS011;422;51.280;7.236;2023-06-05T04:29:08;7.63;;;6.83;;
870;SDS011;422;51.280;7.236;2023-06-05T04:31:41;8.13;;;6.57;;
870;SDS011;422;51.280;7.236;2023-06-05T04:34:09;7.50;;;6.07;;
870;SDS011;422;51.280;7.236;2023-06-05T04:36:36;13.70;;;7.80;;
870;SDS011;422;51.280;7.236;2023-06-05T04:39:03;9.83;;;7.50;;
870;SDS011;422;51.280;7.236;2023-06-05T04:41:32;8.47;;;6.80;;
870;SDS011;422;51.280;7.236;2023-06-05T04:44:01;9.60;;;7.60;;
870;SDS011;422;51.280;7.236;2023-06-05T04:46:28;9.30;;;7.10;;
870;SDS011;422;51.280;7.236;2023-06-05T04:48:56;11.20;;;7.63;;
870;SDS011;422;51.280;7.236;2023-06-05T04:51:23;7.63;;;6.90;;
870;SDS011;422;51.280;7.236;2023-06-05T04:53:51;8.63;;;7.43;;
870;SDS011;422;51.280;7.236;2023-06-05T04:56:19;8.30;;;7.00;;
870;SDS011;422;51.280;7.236;2023-06-05T04:58:47;8.70;;;7.43;;
870;SDS011;422;51.280;7.236;2023-06-05T05:01:15;13.73;;;7.70;;
870;SDS011;422;51.280;7.236;2023-06-05T05:03:43;9.03;;;7.60;;
870;SDS011;422;51.280;7.236;2023-06-05T05:06:15;9.43;;;8.07;;
870;SDS011;422;51.280;7.236;2023-06-05T05:08:43;9.23;;;7.27;;
870;SDS011;422;51.280;7.236;2023-06-05T05:11:11;9.57;;;7.83;;
870;SDS011;422;51.280;7.236;2023-06-05T05:13:40;11.50;;;7.43;;
870;SDS011;422;51.280;7.236;2023-06-05T05:16:07;9.20;;;7.30;;
870;SDS011;422;51.280;7.236;2023-06-05T05:18:37;9.17;;;7.23;;
870;SDS011;422;51.280;7.236;2023-06-05T05:21:06;11.60;;;7.43;;
870;SDS011;422;51.280;7.236;2023-06-05T05:23:34;13.10;;;8.20;;
870;SDS011;422;51.280;7.236;2023-06-05T05:26:01;10.50;;;7.37;;
870;SDS011;422;51.280;7.236;2023-06-05T05:28:30;9.07;;;7.13;;
870;SDS011;422;51.280;7.236;2023-06-05T05:30:57;9.30;;;7.20;;
870;SDS011;422;51.280;7.236;2023-06-05T05:33:25;11.87;;;7.93;;
870;SDS011;422;51.280;7.236;2023-06-05T05:35:52;9.33;;;7.80;;
870;SDS011;422;51.280;7.236;2023-06-05T05:38:20;8.63;;;7.73;;
870;SDS011;422;51.280;7.236;2023-06-05T05:40:48;7.67;;;6.87;;
870;SDS011;422;51.280;7.236;2023-06-05T05:43:16;7.90;;;7.03;;
870;SDS011;422;51.280;7.236;2023-06-05T05:45:43;9.77;;;7.07;;
870;SDS011;422;51.280;7.236;2023-06-05T05:48:10;8.60;;;7.30;;
870;SDS011;422;51.280;7.236;2023-06-05T05:50:37;9.83;;;6.83;;
870;SDS011;422;51.280;7.236;2023-06-05T05:53:06;11.80;;;7.60;;
870;SDS011;422;51.280;7.236;2023-06-05T05:55:33;8.00;;;7.23;;
870;SDS011;422;51.280;7.236;2023-06-05T05:58:02;7.83;;;6.83;;
870;SDS011;422;51.280;7.236;2023-06-05T06:00:29;8.73;;;7.63;;
870;SDS011;422;51.280;7.236;2023-06-05T06:02:56;8.17;;;7.00;;
870;SDS011;422;51.280;7.236;2023-06-05T06:05:24;8.20;;;6.60;;
870;SDS011;422;51.280;7.236;2023-06-05T06:07:51;6.60;;;5.80;;
870;SDS011;422;51.280;7.236;2023-06-05T06:10:18;7.10;;;6.50;;
870;SDS011;422;51.280;7.236;2023-06-05T06:12:46;12.03;;;7.07;;
870;SDS011;422;51.280;7.236;2023-06-05T06:15:14;7.73;;;6.40;;
870;SDS011;422;51.280;7.236;2023-06-05T06:17:42;7.83;;;6.70;;
870;SDS011;422;51.280;7.236;2023-06-05T06:20:09;7.93;;;6.40;;
870;SDS011;422;51.280;7.236;2023-06-05T06:22:39;7.30;;;6.10;;
870;SDS011;422;51.280;7.236;2023-06-05T06:25:07;6.97;;;6.23;;
870;SDS011;422;51.280;7.236;2023-06-05T06:27:35;10.13;;;7.27;;
870;SDS011;422;51.280;7.236;2023-06-05T06:30:03;6.57;;;5.90;;
870;SDS011;422;51.280;7.236;2023-06-05T06:32:33;7.20;;;6.17;;
870;SDS011;422;51.280;7.236;2023-06-05T06:35:01;7.17;;;6.40;;
870;SDS011;422;51.280;7.236;2023-06-05T06:37:29;6.33;;;5.73;;
870;SDS011;422;51.280;7.236;2023-06-05T06:39:56;6.80;;;6.10;;
870;SDS011;422;51.280;7.236;2023-06-05T06:42:24;6.43;;;5.80;;
870;SDS011;422;51.280;7.236;2023-06-05T06:44:51;6.67;;;5.70;;
870;SDS011;422;51.280;7.236;2023-06-05T06:47:21;6.00;;;5.50;;
870;SDS011;422;51.280;7.236;2023-06-05T06:49:49;6.50;;;5.90;;
870;SDS011;422;51.280;7.236;2023-06-05T06:52:17;7.93;;;4.90;;
870;SDS011;422;51.280;7.236;2023-06-05T06:54:45;6.00;;;5.40;;
870;SDS011;422;51.280;7.236;2023-06-05T06:57:12;6.13;;;5.47;;
870;SDS011;422;51.280;7.236;2023-06-05T06:59:39;6.33;;;5.27;;
870;SDS011;422;51.280;7.236;2023-06-05T07:02:10;7.10;;;6.10;;
870;SDS011;422;51.280;7.236;2023-06-05T07:04:38;7.40;;;6.00;;
870;SDS011;422;51.280;7.236;2023-06-05T07:07:09;7.77;;;5.87;;
870;SDS011;422;51.280;7.236;2023-06-05T07:09:37;7.63;;;5.27;;
870;SDS011;422;51.280;7.236;2023-06-05T07:12:05;5.73;;;4.47;;
870;SDS011;422;51.280;7.236;2023-06-05T07:14:34;6.27;;;4.90;;
870;SDS011;422;51.280;7.236;2023-06-05T07:17:01;7.43;;;5.30;;
870;SDS011;422;51.280;7.236;2023-06-05T07:19:29;6.43;;;5.80;;
870;SDS011;422;51.280;7.236;2023-06-05T07:21:58;6.60;;;5.40;;
870;SDS011;422;51.280;7.236;2023-06-05T07:24:28;6.00;;;4.70;;
870;SDS011;422;51.280;7.236;2023-06-05T07:26:56;5.63;;;4.00;;
870;SDS011;422;51.280;7.236;2023-06-05T07:29:24;6.27;;;5.10;;
870;SDS011;422;51.280;7.236;2023-06-05T07:31:51;6.20;;;4.27;;
870;SDS011;422;51.280;7.236;2023-06-05T07:34:19;5.73;;;4.50;;
870;SDS011;422;51.280;7.236;2023-06-05T07:36:48;4.80;;;4.27;;
870;SDS011;422;51.280;7.236;2023-06-05T07:39:17;4.73;;;4.23;;
870;SDS011;422;51.280;7.236;2023-06-05T07:41:46;5.00;;;4.50;;
870;SDS011;422;51.280;7.236;2023-06-05T07:44:15;6.00;;;5.33;;
870;SDS011;422;51.280;7.236;2023-06-05T07:46:44;5.30;;;4.63;;
870;SDS011;422;51.280;7.236;2023-06-05T07:49:12;5.60;;;4.80;;
870;SDS011;422;51.280;7.236;2023-06-05T07:51:40;6.40;;;4.37;;
870;SDS011;422;51.280;7.236;2023-06-05T07:54:09;8.00;;;4.80;;
870;SDS011;422;51.280;7.236;2023-06-05T07:56:37;6.17;;;4.93;;
870;SDS011;422;51.280;7.236;2023-06-05T07:59:07;7.03;;;4.73;;
870;SDS011;422;51.280;7.236;2023-06-05T08:01:34;5.10;;;4.33;;
870;SDS011;422;51.280;7.236;2023-06-05T08:04:03;4.90;;;4.40;;
870;SDS011;422;51.280;7.236;2023-06-05T08:06:31;5.23;;;4.73;;
870;SDS011;422;51.280;7.236;2023-06-05T08:08:58;5.23;;;4.20;;
870;SDS011;422;51.280;7.236;2023-06-05T08:11:26;6.00;;;4.17;;
870;SDS011;422;51.280;7.236;2023-06-05T08:13:54;6.50;;;4.50;;
870;SDS011;422;51.280;7.236;2023-06-05T08:16:23;7.37;;;4.23;;
870;SDS011;422;51.280;7.236;2023-06-05T08:18:50;5.70;;;4.40;;
870;SDS011;422;51.280;7.236;2023-06-05T08:21:17;6.50;;;4.27;;
870;SDS011;422;51.280;7.236;2023-06-05T08:23:45;4.90;;;4.00;;
870;SDS011;422;51.280;7.236;2023-06-05T08:26:12;7.00;;;4.87;;
870;SDS011;422;51.280;7.236;2023-06-05T08:28:40;5.70;;;4.73;;
870;SDS011;422;51.280;7.236;2023-06-05T08:31:08;7.03;;;4.80;;
870;SDS011;422;51.280;7.236;2023-06-05T08:33:37;4.90;;;4.40;;
870;SDS011;422;51.280;7.236;2023-06-05T08:36:04;6.20;;;4.43;;
870;SDS011;422;51.280;7.236;2023-06-05T08:38:33;5.77;;;5.20;;
870;SDS011;422;51.280;7.236;2023-06-05T08:41:01;8.23;;;5.10;;
870;SDS011;422;51.280;7.236;2023-06-05T08:43:30;5.10;;;4.47;;
870;SDS011;422;51.280;7.236;2023-06-05T08:45:58;4.23;;;3.67;;
870;SDS011;422;51.280;7.236;2023-06-05T08:48:25;7.20;;;5.20;;
870;SDS011;422;51.280;7.236;2023-06-05T08:50:54;5.40;;;4.90;;
870;SDS011;422;51.280;7.236;2023-06-05T08:53:22;6.33;;;4.57;;
870;SDS011;422;51.280;7.236;2023-06-05T08:55:53;4.90;;;4.23;;
870;SDS011;422;51.280;7.236;2023-06-05T08:58:21;4.37;;;3.87;;
870;SDS011;422;51.280;7.236;2023-06-05T09:00:48;5.30;;;4.90;;
870;SDS011;422;51.280;7.236;2023-06-05T09:03:16;4.50;;;4.10;;
870;SDS011;422;51.280;7.236;2023-06-05T09:05:45;5.40;;;4.63;;
870;SDS011;422;51.280;7.236;2023-06-05T09:08:15;5.53;;;4.43;;
870;SDS011;422;51.280;7.236;2023-06-05T09:10:43;5.77;;;5.27;;
870;SDS011;422;51.280;7.236;2023-06-05T09:13:10;5.57;;;4.77;;
870;SDS011;422;51.280;7.236;2023-06-05T09:15:37;6.40;;;5.00;;
870;SDS011;422;51.280;7.236;2023-06-05T09:18:05;5.20;;;4.70;;
870;SDS011;422;51.280;7.236;2023-06-05T09:20:35;5.93;;;5.20;;
870;SDS011;422;51.280;7.236;2023-06-05T09:23:03;8.90;;;4.90;;
870;SDS011;422;51.280;7.236;2023-06-05T09:25:44;5.37;;;4.50;;
870;SDS011;422;51.280;7.236;2023-06-05T09:28:13;5.17;;;4.67;;
870;SDS011;422;51.280;7.236;2023-06-05T09:30:53;5.57;;;4.70;;
870;SDS011;422;51.280;7.236;2023-06-05T09:33:22;5.13;;;4.63;;
870;SDS011;422;51.280;7.236;2023-06-05T09:36:02;11.07;;;5.57;;
870;SDS011;422;51.280;7.236;2023-06-05T09:38:31;5.47;;;5.00;;
870;SDS011;422;51.280;7.236;2023-06-05T09:41:03;5.20;;;4.70;;
870;SDS011;422;51.280;7.236;2023-06-05T09:43:31;5.30;;;4.80;;
870;SDS011;422;51.280;7.236;2023-06-05T09:45:59;11.20;;;5.37;;
870;SDS011;422;51.280;7.236;2023-06-05T09:48:32;4.50;;;4.10;;
870;SDS011;422;51.280;7.236;2023-06-05T09:51:06;5.40;;;4.77;;
870;SDS011;422;51.280;7.236;2023-06-05T09:53:35;5.10;;;4.53;;
870;SDS011;422;51.280;7.236;2023-06-05T09:56:08;6.67;;;4.30;;
870;SDS011;422;51.280;7.236;2023-06-05T09:58:38;5.10;;;4.60;;
870;SDS011;422;51.280;7.236;2023-06-05T10:01:07;5.00;;;4.50;;
870;SDS011;422;51.280;7.236;2023-06-05T10:03:36;4.87;;;4.47;;
870;SDS011;422;51.280;7.236;2023-06-05T10:06:06;5.00;;;4.60;;
870;SDS011;422;51.280;7.236;2023-06-05T10:08:34;5.87;;;4.63;;
870;SDS011;422;51.280;7.236;2023-06-05T10:11:01;6.30;;;5.40;;
870;SDS011;422;51.280;7.236;2023-06-05T10:13:31;4.60;;;4.20;;
870;SDS011;422;51.280;7.236;2023-06-05T10:15:59;4.57;;;4.27;;
870;SDS011;422;51.280;7.236;2023-06-05T10:18:26;4.40;;;4.00;;
870;SDS011;422;51.280;7.236;2023-06-05T10:20:53;6.10;;;4.00;;
870;SDS011;422;51.280;7.236;2023-06-05T10:23:22;5.00;;;4.50;;
870;SDS011;422;51.280;7.236;2023-06-05T10:25:50;7.87;;;3.90;;
870;SDS011;422;51.280;7.236;2023-06-05T10:28:25;4.70;;;4.23;;
870;SDS011;422;51.280;7.236;2023-06-05T10:31:11;5.30;;;3.77;;
870;SDS011;422;51.280;7.236;2023-06-05T10:34:12;4.60;;;4.20;;
870;SDS011;422;51.280;7.236;2023-06-05T10:37:00;4.07;;;3.70;;
870;SDS011;422;51.280;7.236;2023-06-05T10:39:46;5.10;;;4.23;;
870;SDS011;422;51.280;7.236;2023-06-05T10:42:22;4.07;;;3.77;;
870;SDS011;422;51.280;7.236;2023-06-05T10:44:51;4.53;;;4.13;;
870;SDS011;422;51.280;7.236;2023-06-05T10:50:23;4.47;;;4.07;;
870;SDS011;422;51.280;7.236;2023-06-05T10:52:52;4.27;;;3.97;;
870;SDS011;422;51.280;7.236;2023-06-05T10:55:23;4.33;;;3.93;;
870;SDS011;422;51.280;7.236;2023-06-05T10:58:04;3.80;;;3.57;;
870;SDS011;422;51.280;7.236;2023-06-05T11:00:35;4.30;;;3.77;;
870;SDS011;422;51.280;7.236;2023-06-05T11:03:04;5.67;;;3.57;;
870;SDS011;422;51.280;7.236;2023-06-05T11:05:32;5.77;;;4.03;;
870;SDS011;422;51.280;7.236;2023-06-05T11:08:10;4.13;;;3.67;;
870;SDS011;422;51.280;7.236;2023-06-05T11:13:51;4.47;;;4.03;;
870;SDS011;422;51.280;7.236;2023-06-05T11:16:27;4.17;;;3.77;;
870;SDS011;422;51.280;7.236;2023-06-05T11:22:04;3.70;;;3.40;;
870;SDS011;422;51.280;7.236;2023-06-05T11:24:34;3.90;;;3.60;;
870;SDS011;422;51.280;7.236;2023-06-05T11:27:02;3.73;;;3.43;;
870;SDS011;422;51.280;7.236;2023-06-05T11:29:30;5.73;;;3.60;;
870;SDS011;422;51.280;7.236;2023-06-05T11:32:00;4.60;;;4.23;;
870;SDS011;422;51.280;7.236;2023-06-05T11:34:36;4.40;;;4.00;;
870;SDS011;422;51.280;7.236;2023-06-05T11:37:16;4.73;;;3.90;;
870;SDS011;422;51.280;7.236;2023-06-05T11:39:44;5.30;;;4.03;;
870;SDS011;422;51.280;7.236;2023-06-05T11:42:11;5.07;;;4.57;;
870;SDS011;422;51.280;7.236;2023-06-05T11:44:38;4.13;;;3.70;;
870;SDS011;422;51.280;7.236;2023-06-05T11:47:07;5.13;;;3.73;;
870;SDS011;422;51.280;7.236;2023-06-05T11:49:49;4.10;;;3.70;;
870;SDS011;422;51.280;7.236;2023-06-05T11:52:17;5.00;;;4.50;;
870;SDS011;422;51.280;7.236;2023-06-05T11:54:46;5.33;;;4.10;;
870;SDS011;422;51.280;7.236;2023-06-05T11:57:37;5.87;;;3.70;;
870;SDS011;422;51.280;7.236;2023-06-05T12:00:06;5.70;;;4.10;;
870;SDS011;422;51.280;7.236;2023-06-05T12:02:37;4.13;;;3.73;;
870;SDS011;422;51.280;7.236;2023-06-05T12:05:05;4.77;;;4.37;;
870;SDS011;422;51.280;7.236;2023-06-05T12:07:33;4.43;;;4.03;;
870;SDS011;422;51.280;7.236;2023-06-05T12:10:02;4.37;;;3.97;;
870;SDS011;422;51.280;7.236;2023-06-05T12:12:30;4.40;;;3.93;;
870;SDS011;422;51.280;7.236;2023-06-05T12:15:12;4.53;;;4.13;;
870;SDS011;422;51.280;7.236;2023-06-05T12:17:48;4.70;;;4.33;;
870;SDS011;422;51.280;7.236;2023-06-05T12:20:16;4.93;;;4.23;;
870;SDS011;422;51.280;7.236;2023-06-05T12:22:44;5.30;;;3.97;;
870;SDS011;422;51.280;7.236;2023-06-05T12:25:14;5.93;;;4.10;;
870;SDS011;422;51.280;7.236;2023-06-05T12:27:42;4.30;;;3.90;;
870;SDS011;422;51.280;7.236;2023-06-05T12:30:10;6.37;;;3.77;;
870;SDS011;422;51.280;7.236;2023-06-05T12:32:39;4.30;;;3.40;;
870;SDS011;422;51.280;7.236;2023-06-05T12:35:08;4.07;;;3.67;;
870;SDS011;422;51.280;7.236;2023-06-05T12:37:44;4.47;;;4.10;;
870;SDS011;422;51.280;7.236;2023-06-05T12:40:12;4.13;;;3.83;;
870;SDS011;422;51.280;7.236;2023-06-05T12:42:42;4.50;;;4.10;;
870;SDS011;422;51.280;7.236;2023-06-05T12:45:10;3.60;;;3.30;;
870;SDS011;422;51.280;7.236;2023-06-05T12:47:38;4.10;;;3.70;;
870;SDS011;422;51.280;7.236;2023-06-05T12:50:06;4.57;;;4.07;;
870;SDS011;422;51.280;7.236;2023-06-05T12:52:37;4.27;;;3.87;;
870;SDS011;422;51.280;7.236;2023-06-05T12:55:05;4.77;;;3.70;;
870;SDS011;422;51.280;7.236;2023-06-05T12:57:33;4.00;;;3.67;;
870;SDS011;422;51.280;7.236;2023-06-05T13:00:02;8.73;;;3.70;;
870;SDS011;422;51.280;7.236;2023-06-05T13:02:36;4.00;;;3.63;;
870;SDS011;422;51.280;7.236;2023-06-05T13:05:03;4.43;;;4.03;;
870;SDS011;422;51.280;7.236;2023-06-05T13:07:32;4.60;;;4.30;;
870;SDS011;422;51.280;7.236;2023-06-05T13:10:01;4.10;;;3.80;;
870;SDS011;422;51.280;7.236;2023-06-05T13:12:28;4.40;;;3.87;;
870;SDS011;422;51.280;7.236;2023-06-05T13:14:55;6.53;;;3.90;;
870;SDS011;422;51.280;7.236;2023-06-05T13:17:23;4.80;;;4.40;;
870;SDS011;422;51.280;7.236;2023-06-05T13:19:50;5.70;;;3.50;;
870;SDS011;422;51.280;7.236;2023-06-05T13:22:17;3.77;;;3.40;;
870;SDS011;422;51.280;7.236;2023-06-05T13:24:46;3.87;;;3.57;;
870;SDS011;422;51.280;7.236;2023-06-05T13:27:14;4.50;;;4.10;;
870;SDS011;422;51.280;7.236;2023-06-05T13:29:41;5.43;;;4.03;;
870;SDS011;422;51.280;7.236;2023-06-05T13:32:09;5.93;;;4.20;;
870;SDS011;422;51.280;7.236;2023-06-05T13:34:36;7.50;;;4.60;;
870;SDS011;422;51.280;7.236;2023-06-05T13:37:03;3.90;;;3.60;;
870;SDS011;422;51.280;7.236;2023-06-05T13:39:31;3.93;;;3.63;;
870;SDS011;422;51.280;7.236;2023-06-05T13:41:59;5.83;;;3.80;;
870;SDS011;422;51.280;7.236;2023-06-05T13:44:27;3.40;;;3.10;;
870;SDS011;422;51.280;7.236;2023-06-05T13:46:56;4.77;;;3.57;;
870;SDS011;422;51.280;7.236;2023-06-05T13:49:23;3.43;;;3.13;;
870;SDS011;422;51.280;7.236;2023-06-05T13:51:51;4.00;;;3.70;;
870;SDS011;422;51.280;7.236;2023-06-05T13:54:18;3.50;;;3.20;;
870;SDS011;422;51.280;7.236;2023-06-05T13:56:45;3.97;;;3.67;;
870;SDS011;422;51.280;7.236;2023-06-05T13:59:14;6.20;;;3.90;;
870;SDS011;422;51.280;7.236;2023-06-05T14:01:41;4.97;;;3.50;;
870;SDS011;422;51.280;7.236;2023-06-05T14:04:08;4.23;;;3.80;;
870;SDS011;422;51.280;7.236;2023-06-05T14:06:35;4.70;;;3.90;;
870;SDS011;422;51.280;7.236;2023-06-05T14:09:04;4.30;;;4.00;;
870;SDS011;422;51.280;7.236;2023-06-05T14:11:31;4.20;;;3.90;;
870;SDS011;422;51.280;7.236;2023-06-05T14:13:58;4.87;;;3.93;;
870;SDS011;422;51.280;7.236;2023-06-05T14:16:28;4.50;;;4.10;;
870;SDS011;422;51.280;7.236;2023-06-05T14:18:56;5.20;;;3.97;;
870;SDS011;422;51.280;7.236;2023-06-05T14:21:23;4.13;;;3.73;;
870;SDS011;422;51.280;7.236;2023-06-05T14:23:50;5.17;;;3.33;;
870;SDS011;422;51.280;7.236;2023-06-05T14:26:17;4.30;;;3.90;;
870;SDS011;422;51.280;7.236;2023-06-05T14:28:46;3.67;;;3.43;;
870;SDS011;422;51.280;7.236;2023-06-05T14:31:13;4.60;;;4.30;;
870;SDS011;422;51.280;7.236;2023-06-05T14:33:42;5.27;;;3.33;;
870;SDS011;422;51.280;7.236;2023-06-05T14:36:09;5.13;;;4.33;;
870;SDS011;422;51.280;7.236;2023-06-05T14:38:37;4.50;;;4.20;;
870;SDS011;422;51.280;7.236;2023-06-05T14:41:04;3.50;;;3.20;;
870;SDS011;422;51.280;7.236;2023-06-05T14:43:31;5.10;;;4.63;;
870;SDS011;422;51.280;7.236;2023-06-05T14:45:58;4.20;;;3.83;;
870;SDS011;422;51.280;7.236;2023-06-05T14:48:26;4.10;;;3.70;;
870;SDS011;422;51.280;7.236;2023-06-05T14:50:55;4.07;;;3.67;;
870;SDS011;422;51.280;7.236;2023-06-05T14:53:22;3.93;;;3.73;;
870;SDS011;422;51.280;7.236;2023-06-05T14:55:50;3.97;;;3.67;;
870;SDS011;422;51.280;7.236;2023-06-05T14:58:17;3.73;;;3.43;;
870;SDS011;422;51.280;7.236;2023-06-05T15:00:44;5.60;;;4.07;;
870;SDS011;422;51.280;7.236;2023-06-05T15:03:13;3.90;;;3.60;;
870;SDS011;422;51.280;7.236;2023-06-05T15:05:41;4.17;;;3.87;;
870;SDS011;422;51.280;7.236;2023-06-05T15:08:12;4.43;;;4.10;;
870;SDS011;422;51.280;7.236;2023-06-05T15:10:39;5.23;;;3.33;;
870;SDS011;422;51.280;7.236;2023-06-05T15:13:07;4.43;;;3.97;;
870;SDS011;422;51.280;7.236;2023-06-05T15:15:34;3.87;;;3.30;;
870;SDS011;422;51.280;7.236;2023-06-05T15:18:02;4.10;;;3.80;;
870;SDS011;422;51.280;7.236;2023-06-05T15:20:30;3.53;;;3.30;;
870;SDS011;422;51.280;7.236;2023-06-05T15:22:57;3.60;;;3.30;;
870;SDS011;422;51.280;7.236;2023-06-05T15:25:26;4.13;;;3.73;;
870;SDS011;422;51.280;7.236;2023-06-05T15:27:53;4.20;;;3.63;;
870;SDS011;422;51.280;7.236;2023-06-05T15:30:20;3.70;;;3.40;;
870;SDS011;422;51.280;7.236;2023-06-05T15:32:47;4.37;;;4.00;;
870;SDS011;422;51.280;7.236;2023-06-05T15:35:14;3.70;;;3.40;;
870;SDS011;422;51.280;7.236;2023-06-05T15:37:41;4.20;;;3.90;;
870;SDS011;422;51.280;7.236;2023-06-05T15:40:09;4.03;;;3.67;;
870;SDS011;422;51.280;7.236;2023-06-05T15:42:38;3.47;;;3.10;;
870;SDS011;422;51.280;7.236;2023-06-05T15:45:05;6.57;;;4.50;;
870;SDS011;422;51.280;7.236;2023-06-05T15:47:33;5.30;;;3.50;;
870;SDS011;422;51.280;7.236;2023-06-05T15:50:00;5.27;;;4.13;;
870;SDS011;422;51.280;7.236;2023-06-05T15:52:29;4.50;;;4.10;;
870;SDS011;422;51.280;7.236;2023-06-05T15:54:57;5.03;;;4.57;;
870;SDS011;422;51.280;7.236;2023-06-05T15:57:24;6.43;;;4.10;;
870;SDS011;422;51.280;7.236;2023-06-05T15:59:53;4.40;;;3.60;;
870;SDS011;422;51.280;7.236;2023-06-05T16:02:21;3.70;;;3.40;;
870;SDS011;422;51.280;7.236;2023-06-05T16:04:48;4.47;;;4.17;;